Hutchinson, KS

5:05 PM CDT on August 22, 2014 (GMT -0500)
Hutchinson Municipal | Change Station
CLOSE
Current Station
Airport
Location: Hutchinson,
Elevation: 1542 ft
Nearby Weather Stations
Active Advisory: Heat Advisory

Elev 1542 ft 38.07 °N, 97.86 °W | Updated 13 minutes ago

Clear
Clear
102 °F
Feels Like 105 °F
N
14
Wind Variable Wind from South
Gusts 23 mph

Today
High -- | Low -- °F
--% Chance of Precip.
Yesterday
High -- | Low -- °F
Precip. -- in
6:52 AM 8:15 PM
Waning Crescent, 6% visible
Pressure 29.75 in
Visibility 10.0 miles
Clouds Clear
Heat Index 105 °F
Dew Point 64 °F
Humidity 29%
Rainfall 0.00 in
Snow Depth Not available.
UV 5 out of 12
Pollen 11.20 out of 12
Air Quality Not available.
Flu Activity Not available.
METAR KHUT 222152Z 17012G20KT 10SM CLR 39/18 A2984 RMK AO2 LTG DSNT SW SLP075 T03890178

More Conditions Fewer Conditions

Pressure 29.75 in
Visibility 10.0 miles
Clouds Clear
Heat Index 105 °F
Dew Point 64 °F
Humidity 29%
Rainfall 0.00 in
Snow Depth Not available.
UV 5 out of 12
Pollen 11.20 out of 12
Air Quality Not available.
Flu Activity Not available.
METAR KHUT 222152Z 17012G20KT 10SM CLR 39/18 A2984 RMK AO2 LTG DSNT SW SLP075 T03890178

More Conditions Fewer Conditions

10-Day Weather Forecast

Almanac

Astronomy

Aug. 22, 2014 Rise Set
Actual Time 6:52 AM CDT 8:15 PM CDT
Civil Twilight 6:25 AM CDT 8:43 PM CDT
Nautical Twilight 5:52 AM CDT 9:15 PM CDT
Astronomical Twilight 5:17 AM CDT 9:50 PM CDT
Moon 4:17 AM CDT 6:24 PM CDT
Length of Visible Light 14h 17m
Length of Day
13h 22m
Tomorrow will be 2m 15s shorter.
Waning Crescent, 6% of the Moon is Illuminated
Today
Waning Crescent
Aug 25
New
Sep 2
First Quarter
Sep 8
Full
Sep 15
Last Quarter

Today's Extremes

State Highs State Lows

Community

WunderPhotos

Upload Photos

1,746,268 photos uploaded!

WunderBlogs® & News

By Dr. Jeff Masters
Director of Meteorology, Weather Underground
By Kari Strenfel
Meteorologist, Weather Underground
By Christopher C. Burt
Weather Historian, Weather Underground
August 22, 2014
August 22, 2014
August 22, 2014

Nearby

Snow Depth

Station Depth Elevation
No new snow has been reported.

Earthquake Activity

City Distance Mag. Time & Date
Cherokee, Oklahoma 86 miles 3.8 8:25 PM CDT
2014-08-17
Medford, Oklahoma 82 miles 2.9 6:30 PM CDT
2014-08-17
Cherokee, Oklahoma 93 miles 2.6 11:50 AM CDT
2014-08-17
Medford, Oklahoma 82 miles 3.1 11:35 AM CDT
2014-08-17
Minimum magnitude displayed is 2.5.

Coastal Water Temperatures

Place Temperature
No Stations Reporting

Nearby Weather Stations